Time;durP1;ratioP1;P1;durP2;ratioP2;P2;SDS_P1;SDS_P2;PMS_P1;PMS_P2;Temp;Humidity;BMP_temperature;BMP_pressure;BME280_temperature;BME280_humidity;BME280_pressure;Samples;Min_cycle;Max_cycle;Signal;HPM_P1;HPM_P2
2021/10/01 00:02:06;;;;;;;4.13;1.50;;;11.30;1.00;;;;;;5013267;28;20550;-83
2021/10/01 00:04:32;;;;;;;3.53;1.03;;;11.40;1.00;;;;;;5023919;28;20255;-82
2021/10/01 00:06:58;;;;;;;4.93;1.37;;;11.30;1.00;;;;;;5016126;28;21234;-82
2021/10/01 00:09:23;;;;;;;6.17;1.37;;;11.30;1.00;;;;;;5008834;28;20277;-82
2021/10/01 00:11:52;;;;;;;2.33;1.00;;;11.30;1.00;;;;;;5002063;28;20214;-81
2021/10/01 00:14:19;;;;;;;4.10;1.30;;;11.30;1.00;;;;;;5013877;28;20217;-81
2021/10/01 00:16:45;;;;;;;2.73;1.53;;;11.20;1.00;;;;;;5023332;28;20455;-82
2021/10/01 00:19:11;;;;;;;2.90;1.10;;;11.30;1.00;;;;;;5032845;28;20449;-82
2021/10/01 00:21:37;;;;;;;3.97;1.00;;;11.30;1.00;;;;;;5021316;28;21068;-81
2021/10/01 00:24:03;;;;;;;2.60;1.20;;;11.30;1.00;;;;;;5025732;28;20459;-81
2021/10/01 00:26:29;;;;;;;1.57;0.90;;;11.30;1.00;;;;;;5025498;28;20219;-81
2021/10/01 00:28:54;;;;;;;1.97;0.97;;;11.30;1.00;;;;;;5029190;28;20603;-81
2021/10/01 00:31:20;;;;;;;1.90;0.90;;;11.30;1.00;;;;;;5018918;28;20238;-80
2021/10/01 00:33:45;;;;;;;4.10;1.10;;;11.30;1.00;;;;;;5001494;28;20179;-80
2021/10/01 00:36:11;;;;;;;2.33;1.20;;;11.20;1.00;;;;;;5010640;28;20605;-81
2021/10/01 00:38:37;;;;;;;5.20;1.67;;;11.20;1.00;;;;;;5010252;28;20190;-80
2021/10/01 00:41:02;;;;;;;3.80;1.33;;;11.10;1.00;;;;;;5018174;28;20239;-80
2021/10/01 00:43:28;;;;;;;5.10;1.03;;;11.20;1.00;;;;;;5011035;28;20447;-80
2021/10/01 00:45:54;;;;;;;3.53;1.10;;;11.20;1.00;;;;;;5023561;28;20202;-80
2021/10/01 00:48:20;;;;;;;9.33;1.43;;;11.20;1.00;;;;;;5023445;28;20754;-81
2021/10/01 00:50:45;;;;;;;4.20;1.20;;;11.20;1.00;;;;;;5019659;28;20191;-80
2021/10/01 00:53:12;;;;;;;3.87;1.00;;;11.20;1.00;;;;;;5012813;28;20543;-81
2021/10/01 00:55:37;;;;;;;8.83;0.90;;;11.10;1.00;;;;;;5018976;28;20291;-80
2021/10/01 00:58:03;;;;;;;2.40;1.10;;;11.10;1.00;;;;;;5026062;28;20456;-80
2021/10/01 01:00:29;;;;;;;12.20;2.10;;;11.10;1.00;;;;;;5017815;28;20190;-80
2021/10/01 01:02:58;;;;;;;5.83;1.00;;;11.10;1.00;;;;;;5010765;28;20190;-81
2021/10/01 01:05:36;;;;;;;5.20;1.43;;;11.00;1.00;;;;;;5016520;28;20485;-79
2021/10/01 01:08:09;;;;;;;3.30;1.30;;;11.10;1.00;;;;;;5030194;28;20451;-82
2021/10/01 01:11:03;;;;;;;4.33;1.90;;;11.00;1.00;;;;;;5020987;28;20452;-82
2021/10/01 01:13:36;;;;;;;5.07;1.73;;;11.00;1.00;;;;;;5024130;28;20474;-80
2021/10/01 01:16:10;;;;;;;3.47;1.27;;;11.00;1.00;;;;;;5023855;28;20453;-82
2021/10/01 01:18:50;;;;;;;3.10;1.90;;;11.00;1.00;;;;;;5016525;28;20957;-82
2021/10/01 01:21:40;;;;;;;4.03;1.33;;;10.90;1.00;;;;;;5023553;28;20535;-82
2021/10/01 01:24:24;;;;;;;2.50;1.10;;;10.90;1.00;;;;;;5024725;28;20830;-82
2021/10/01 01:27:49;;;;;;;4.80;1.23;;;10.90;1.00;;;;;;5036217;28;21546;-82
2021/10/01 01:30:19;;;;;;;5.33;1.63;;;10.90;1.00;;;;;;5016900;28;20836;-81
2021/10/01 01:32:57;;;;;;;5.63;1.37;;;10.80;1.00;;;;;;5021011;28;20881;-82
2021/10/01 01:35:26;;;;;;;4.33;1.27;;;10.80;1.00;;;;;;5016608;28;20878;-81
2021/10/01 01:37:56;;;;;;;3.20;1.30;;;10.70;1.00;;;;;;5038751;28;20445;-81
2021/10/01 01:40:26;;;;;;;2.53;1.17;;;10.70;1.00;;;;;;5036547;28;20494;-82
2021/10/01 01:42:56;;;;;;;5.20;0.90;;;10.70;1.00;;;;;;5037201;28;20459;-81
2021/10/01 01:45:22;;;;;;;3.87;1.37;;;10.70;1.00;;;;;;5029231;28;20820;-81
2021/10/01 01:47:50;;;;;;;4.93;1.33;;;10.60;1.00;;;;;;5021764;28;20506;-82
2021/10/01 01:50:17;;;;;;;4.13;1.13;;;10.70;1.00;;;;;;5039245;28;20454;-81
2021/10/01 01:52:43;;;;;;;4.40;1.00;;;10.70;1.00;;;;;;5025743;28;20456;-82
2021/10/01 01:55:11;;;;;;;5.93;1.27;;;10.70;1.00;;;;;;5024427;28;20537;-81
2021/10/01 01:57:41;;;;;;;1.87;1.20;;;10.70;1.00;;;;;;5022818;28;20440;-82
2021/10/01 02:00:07;;;;;;;4.43;1.10;;;10.70;1.00;;;;;;5026089;28;20859;-81
2021/10/01 02:02:50;;;;;;;4.47;1.00;;;10.70;1.00;;;;;;5024536;28;20881;-82
2021/10/01 02:05:19;;;;;;;8.57;1.30;;;10.70;1.00;;;;;;5022300;28;20468;-81
2021/10/01 02:07:46;;;;;;;6.27;1.37;;;10.70;1.00;;;;;;5040347;28;20529;-81
2021/10/01 02:10:13;;;;;;;4.60;1.37;;;10.70;1.00;;;;;;5021700;28;21095;-81
2021/10/01 02:12:40;;;;;;;6.07;1.47;;;10.70;1.00;;;;;;5022136;28;20438;-81
2021/10/01 02:15:10;;;;;;;3.03;1.00;;;10.70;1.00;;;;;;5031295;28;20484;-80
2021/10/01 02:17:37;;;;;;;2.73;1.20;;;10.70;1.00;;;;;;5023351;28;20436;-81
2021/10/01 02:20:06;;;;;;;4.50;1.30;;;10.70;1.00;;;;;;5025225;28;20445;-82
2021/10/01 02:22:33;;;;;;;2.67;1.00;;;10.70;1.00;;;;;;5021768;28;20439;-81
2021/10/01 02:24:59;;;;;;;3.90;1.10;;;10.70;1.00;;;;;;5037099;28;20432;-81
2021/10/01 02:27:34;;;;;;;5.10;1.00;;;10.70;1.00;;;;;;5030555;28;20693;-81
2021/10/01 02:30:20;;;;;;;3.97;1.00;;;10.70;1.00;;;;;;5041027;28;20190;-81
2021/10/01 02:33:02;;;;;;;3.20;1.10;;;10.80;1.00;;;;;;5022904;28;20441;-81
2021/10/01 02:35:28;;;;;;;7.60;1.40;;;10.70;1.00;;;;;;5043072;28;20583;-81
2021/10/01 02:37:54;;;;;;;6.80;1.17;;;10.70;1.00;;;;;;5033872;28;20459;-82
2021/10/01 02:40:21;;;;;;;3.13;1.23;;;10.70;1.00;;;;;;5033697;28;20197;-81
2021/10/01 02:42:47;;;;;;;3.67;1.20;;;10.60;1.00;;;;;;5027799;28;20479;-81
2021/10/01 02:45:13;;;;;;;3.20;1.30;;;10.70;1.00;;;;;;5027034;28;20542;-81
2021/10/01 02:47:40;;;;;;;6.83;1.20;;;10.60;1.00;;;;;;5028792;28;20471;-80
2021/10/01 02:50:09;;;;;;;4.93;1.40;;;10.60;1.00;;;;;;5035943;28;20498;-81
2021/10/01 02:52:58;;;;;;;1.90;1.00;;;10.60;1.00;;;;;;5017502;28;20451;-81
2021/10/01 02:55:34;;;;;;;3.73;1.20;;;10.60;1.00;;;;;;5014784;28;20477;-82
2021/10/01 02:58:10;;;;;;;3.80;1.30;;;10.60;1.00;;;;;;5019008;28;20445;-81
2021/10/01 03:00:37;;;;;;;5.10;1.57;;;10.60;1.00;;;;;;5022175;28;21003;-82
2021/10/01 03:03:08;;;;;;;3.10;1.03;;;10.60;1.00;;;;;;5022381;28;20444;-81
2021/10/01 03:05:36;;;;;;;3.83;1.23;;;10.60;1.00;;;;;;5027754;28;20493;-81
2021/10/01 03:08:02;;;;;;;3.30;1.10;;;10.60;1.00;;;;;;5035156;28;20450;-81
2021/10/01 03:10:29;;;;;;;3.70;1.30;;;10.50;1.00;;;;;;5024553;28;20957;-81
2021/10/01 03:12:55;;;;;;;2.10;0.90;;;10.60;1.00;;;;;;5026042;28;20193;-81
2021/10/01 03:15:23;;;;;;;5.00;1.37;;;10.50;1.00;;;;;;5031469;28;20551;-81
2021/10/01 03:17:49;;;;;;;6.10;1.47;;;10.50;1.00;;;;;;5021495;28;20503;-81
2021/10/01 03:20:16;;;;;;;4.60;1.50;;;10.50;1.00;;;;;;5036462;28;21232;-81
2021/10/01 03:22:43;;;;;;;3.00;1.13;;;10.40;1.00;;;;;;5027575;28;20932;-81
2021/10/01 03:25:11;;;;;;;2.80;1.10;;;10.40;1.00;;;;;;5021499;28;20905;-81
2021/10/01 03:27:37;;;;;;;3.63;1.53;;;10.40;1.00;;;;;;5031794;28;20800;-81
2021/10/01 03:30:07;;;;;;;2.90;1.03;;;10.40;1.00;;;;;;5037842;28;20440;-81
2021/10/01 03:32:33;;;;;;;2.63;1.10;;;10.50;1.00;;;;;;5035785;28;20482;-82
2021/10/01 03:35:01;;;;;;;4.27;1.50;;;10.50;1.00;;;;;;5036329;28;20509;-82
2021/10/01 03:37:30;;;;;;;2.30;1.30;;;10.50;1.00;;;;;;5024878;28;20475;-82
2021/10/01 03:40:01;;;;;;;4.83;1.20;;;10.50;1.00;;;;;;5030091;28;20472;-81
2021/10/01 03:42:29;;;;;;;3.90;1.90;;;10.40;1.00;;;;;;5045992;28;20457;-81
2021/10/01 03:44:54;;;;;;;2.63;1.40;;;10.40;1.00;;;;;;5020288;28;20433;-81
2021/10/01 03:47:20;;;;;;;3.20;1.10;;;10.50;1.00;;;;;;5031984;28;20590;-83
2021/10/01 03:49:47;;;;;;;5.03;1.23;;;10.50;1.00;;;;;;5026532;28;20213;-82
2021/10/01 03:52:13;;;;;;;5.80;1.20;;;10.50;1.00;;;;;;5030062;28;20481;-82
2021/10/01 03:54:43;;;;;;;2.37;1.63;;;10.50;1.00;;;;;;5034785;28;20447;-82
2021/10/01 03:57:09;;;;;;;6.20;2.70;;;10.60;1.00;;;;;;5050411;28;21007;-81
2021/10/01 03:59:34;;;;;;;4.13;0.90;;;10.50;1.00;;;;;;5029542;28;20436;-81
2021/10/01 04:02:01;;;;;;;3.00;1.03;;;10.50;1.00;;;;;;5047815;28;20229;-82
2021/10/01 04:04:26;;;;;;;2.50;1.10;;;10.50;1.00;;;;;;5046527;28;20845;-82
2021/10/01 04:06:53;;;;;;;2.67;1.10;;;10.50;1.00;;;;;;5035981;28;20210;-82
2021/10/01 04:09:19;;;;;;;2.17;1.10;;;10.60;1.00;;;;;;5053519;28;20436;-82
2021/10/01 04:11:45;;;;;;;3.57;1.10;;;10.60;1.00;;;;;;5050841;28;20175;-82
2021/10/01 04:14:11;;;;;;;5.00;1.53;;;10.50;1.00;;;;;;5050670;28;20843;-82
2021/10/01 04:16:37;;;;;;;8.80;1.30;;;10.60;1.00;;;;;;5056453;28;20436;-82
2021/10/01 04:19:03;;;;;;;5.57;1.33;;;10.50;1.00;;;;;;5042844;28;20190;-82
2021/10/01 04:21:29;;;;;;;5.37;1.40;;;10.50;1.00;;;;;;5044868;28;20465;-81
2021/10/01 04:23:55;;;;;;;3.20;1.33;;;10.40;1.00;;;;;;5045126;28;21012;-82
2021/10/01 04:26:33;;;;;;;1.97;1.33;;;10.50;1.00;;;;;;5050235;28;20202;-82
2021/10/01 04:28:59;;;;;;;2.30;0.83;;;10.40;1.00;;;;;;5042324;28;20836;-81
2021/10/01 04:31:24;;;;;;;3.17;0.90;;;10.40;1.00;;;;;;5037771;28;20453;-82
2021/10/01 04:33:50;;;;;;;2.77;0.90;;;10.40;1.00;;;;;;5041754;28;20445;-81
2021/10/01 04:36:18;;;;;;;3.73;1.10;;;10.50;1.00;;;;;;5044770;28;20289;-81
2021/10/01 04:38:45;;;;;;;10.23;1.50;;;10.50;1.00;;;;;;5031817;28;20193;-82
2021/10/01 04:41:11;;;;;;;2.40;1.10;;;10.40;1.00;;;;;;5035403;28;20944;-82
2021/10/01 04:43:37;;;;;;;4.67;1.43;;;10.40;1.00;;;;;;5021872;28;20468;-82
2021/10/01 04:46:15;;;;;;;7.73;1.73;;;10.40;1.00;;;;;;5029519;28;20469;-81
2021/10/01 04:48:42;;;;;;;5.33;1.20;;;10.30;1.00;;;;;;5026474;28;20446;-81
2021/10/01 04:51:10;;;;;;;3.70;1.60;;;10.40;1.00;;;;;;5043576;28;20912;-82
2021/10/01 04:53:37;;;;;;;3.03;1.30;;;10.40;1.00;;;;;;5040162;28;20445;-82
2021/10/01 04:56:03;;;;;;;3.30;1.20;;;10.40;1.00;;;;;;5049019;28;21347;-81
2021/10/01 04:58:28;;;;;;;3.93;1.40;;;10.40;1.00;;;;;;5052880;28;20187;-81
2021/10/01 05:01:01;;;;;;;4.20;1.27;;;10.40;1.00;;;;;;5045380;28;20187;-82
2021/10/01 05:03:46;;;;;;;4.53;1.60;;;10.40;1.00;;;;;;5048114;28;20436;-82
2021/10/01 05:06:47;;;;;;;3.03;1.20;;;10.40;1.00;;;;;;5015475;28;20473;-82
2021/10/01 05:09:21;;;;;;;2.70;1.30;;;10.40;1.00;;;;;;5049611;28;20490;-82
2021/10/01 05:12:05;;;;;;;2.90;1.53;;;10.30;1.00;;;;;;5050683;28;20586;-81
2021/10/01 05:14:50;;;;;;;2.03;1.17;;;10.30;1.00;;;;;;5042683;28;23019;-82
2021/10/01 05:17:37;;;;;;;2.67;1.00;;;10.30;1.00;;;;;;5048993;28;20958;-82
2021/10/01 05:20:21;;;;;;;7.70;1.27;;;10.30;1.00;;;;;;5050138;28;20521;-81
2021/10/01 05:22:53;;;;;;;3.37;1.23;;;10.30;1.00;;;;;;5048181;28;20456;-81
2021/10/01 05:25:18;;;;;;;3.10;1.10;;;10.40;1.00;;;;;;5041509;28;20452;-82
2021/10/01 05:27:44;;;;;;;2.80;2.10;;;10.30;1.00;;;;;;5044210;28;20206;-82
2021/10/01 05:30:10;;;;;;;4.30;1.47;;;10.30;1.00;;;;;;5055609;28;20187;-81
2021/10/01 05:32:36;;;;;;;2.53;1.20;;;10.30;1.00;;;;;;5057732;28;20340;-81
2021/10/01 05:35:03;;;;;;;2.20;1.10;;;10.30;1.00;;;;;;5054199;28;20857;-81
2021/10/01 05:37:28;;;;;;;4.03;1.37;;;10.30;1.00;;;;;;5051505;28;20460;-82
2021/10/01 05:39:54;;;;;;;8.40;1.30;;;10.30;1.00;;;;;;5044880;28;20973;-81
2021/10/01 05:42:20;;;;;;;4.50;1.33;;;10.30;1.00;;;;;;5032196;28;20334;-82
2021/10/01 05:44:46;;;;;;;3.97;1.50;;;10.30;1.00;;;;;;5035305;28;20813;-81
2021/10/01 05:47:32;;;;;;;3.37;1.10;;;10.30;1.00;;;;;;5031612;28;20467;-81
2021/10/01 05:50:17;;;;;;;2.57;1.47;;;10.30;1.00;;;;;;5035534;28;20521;-81
2021/10/01 05:53:06;;;;;;;2.43;1.20;;;10.30;1.00;;;;;;5033423;28;20483;-82
2021/10/01 05:55:51;;;;;;;4.03;1.73;;;10.30;1.00;;;;;;5041448;28;21044;-81
2021/10/01 05:58:36;;;;;;;2.13;1.27;;;10.30;1.00;;;;;;5026848;28;20479;-81
2021/10/01 06:01:02;;;;;;;3.83;2.00;;;10.30;1.00;;;;;;5035104;28;20440;-80
2021/10/01 06:03:28;;;;;;;2.73;1.50;;;10.20;1.00;;;;;;5037979;28;20491;-81
2021/10/01 06:05:54;;;;;;;2.70;0.93;;;10.30;1.00;;;;;;5037597;28;20484;-81
2021/10/01 06:08:20;;;;;;;4.87;1.30;;;10.40;1.00;;;;;;5033024;28;20310;-80
2021/10/01 06:10:46;;;;;;;7.50;1.40;;;10.40;1.00;;;;;;5035352;28;20214;-80
2021/10/01 06:13:11;;;;;;;3.43;1.20;;;10.40;1.00;;;;;;5033988;28;20523;-80
2021/10/01 06:15:37;;;;;;;4.60;1.60;;;10.40;1.00;;;;;;5035322;28;20456;-80
2021/10/01 06:18:03;;;;;;;2.37;0.87;;;10.40;1.00;;;;;;5034727;28;20195;-80
2021/10/01 06:20:29;;;;;;;4.40;1.13;;;10.50;1.00;;;;;;5034549;28;20197;-80
2021/10/01 06:22:55;;;;;;;1.87;0.80;;;10.60;1.00;;;;;;5034353;28;21003;-80
2021/10/01 06:25:20;;;;;;;2.57;1.00;;;10.60;1.00;;;;;;5043185;28;20452;-80
2021/10/01 06:27:46;;;;;;;4.53;0.83;;;10.70;1.00;;;;;;5045527;28;20198;-81
2021/10/01 06:30:11;;;;;;;2.40;1.10;;;10.70;1.00;;;;;;5034534;28;20179;-81
2021/10/01 06:32:39;;;;;;;3.27;1.47;;;10.80;1.00;;;;;;5034386;28;20231;-81
2021/10/01 06:35:05;;;;;;;4.80;1.63;;;10.80;1.00;;;;;;5036034;28;20190;-81
2021/10/01 06:37:31;;;;;;;1.70;0.90;;;10.90;1.00;;;;;;5033727;28;20518;-81
2021/10/01 06:39:56;;;;;;;2.10;1.33;;;10.90;1.00;;;;;;5027305;28;20457;-81
2021/10/01 06:42:23;;;;;;;4.93;1.23;;;10.90;1.00;;;;;;5035494;28;20299;-82
2021/10/01 06:44:51;;;;;;;1.60;1.20;;;11.00;1.00;;;;;;5031157;28;20307;-82
2021/10/01 06:47:22;;;;;;;3.77;1.40;;;11.00;1.00;;;;;;5029476;28;20542;-81
2021/10/01 06:49:59;;;;;;;2.47;1.07;;;11.10;1.00;;;;;;5031402;28;20445;-81
2021/10/01 06:53:03;;;;;;;1.93;1.00;;;11.10;1.00;;;;;;5035117;28;20448;-81
2021/10/01 07:38:54;;;;;;;4.90;1.20;;;12.50;1.00;;;;;;5025814;28;20470;-81
2021/10/01 08:20:28;;;;;;;10.40;1.40;;;13.70;1.00;;;;;;5012032;28;20452;-81
2021/10/01 08:22:54;;;;;;;9.00;1.20;;;13.80;1.00;;;;;;5006929;28;24854;-80
2021/10/01 08:25:20;;;;;;;15.80;1.40;;;13.90;1.00;;;;;;5007959;28;21222;-80
2021/10/01 08:27:46;;;;;;;10.20;1.13;;;14.00;1.00;;;;;;5009119;28;21002;-80
2021/10/01 08:30:12;;;;;;;12.37;1.30;;;14.00;1.00;;;;;;5023414;28;21579;-80
2021/10/01 08:32:38;;;;;;;12.17;1.37;;;14.10;1.00;;;;;;5022905;28;20190;-80
2021/10/01 08:35:05;;;;;;;12.90;1.93;;;14.10;1.00;;;;;;5029721;28;20969;-80
2021/10/01 08:37:31;;;;;;;13.87;1.23;;;14.10;1.00;;;;;;5024977;28;21013;-80
2021/10/01 08:39:56;;;;;;;15.20;1.20;;;14.20;1.00;;;;;;5026593;28;20458;-81
2021/10/01 08:42:44;;;;;;;14.67;1.30;;;14.30;1.00;;;;;;5029318;28;20609;-80
2021/10/01 08:45:14;;;;;;;12.93;1.20;;;14.40;1.00;;;;;;5024443;28;20846;-80
2021/10/01 08:47:41;;;;;;;12.77;1.03;;;14.50;1.00;;;;;;5022269;28;20571;-81
2021/10/01 08:50:08;;;;;;;13.30;1.40;;;14.60;1.00;;;;;;5018527;28;20510;-81
2021/10/01 08:52:34;;;;;;;12.13;1.23;;;14.70;1.00;;;;;;5018256;28;20473;-81
2021/10/01 08:55:00;;;;;;;12.27;1.47;;;14.80;1.00;;;;;;5021885;28;21185;-81
2021/10/01 08:57:27;;;;;;;13.87;1.20;;;14.90;1.00;;;;;;5019537;28;20994;-80
2021/10/01 08:59:52;;;;;;;15.93;1.30;;;15.00;1.00;;;;;;5016929;28;20570;-81
2021/10/01 09:02:19;;;;;;;15.80;1.23;;;15.00;1.00;;;;;;5029373;28;21075;-81
2021/10/01 09:04:44;;;;;;;16.97;1.50;;;14.90;1.00;;;;;;5028992;28;20193;-81
2021/10/01 09:07:10;;;;;;;16.10;1.20;;;15.00;1.00;;;;;;5028305;28;20480;-82
2021/10/01 09:09:39;;;;;;;19.27;1.40;;;15.10;1.00;;;;;;5016693;28;20190;-81
2021/10/01 09:12:05;;;;;;;18.33;1.30;;;15.20;1.00;;;;;;5025289;28;20291;-81
2021/10/01 09:14:40;;;;;;;18.93;1.40;;;15.10;1.00;;;;;;5027313;28;20953;-81
2021/10/01 09:17:17;;;;;;;15.73;1.10;;;15.10;1.00;;;;;;5028058;28;20509;-81
2021/10/01 09:19:44;;;;;;;16.57;1.13;;;15.20;1.00;;;;;;5027450;28;20448;-80
2021/10/01 09:22:11;;;;;;;18.17;1.90;;;15.20;1.00;;;;;;5038902;28;20461;-81
2021/10/01 09:24:42;;;;;;;16.00;1.57;;;15.30;1.00;;;;;;5040622;28;20491;-81
2021/10/01 09:27:12;;;;;;;17.37;1.30;;;15.40;1.00;;;;;;5053064;28;20479;-81
2021/10/01 09:29:38;;;;;;;17.50;1.33;;;15.50;1.00;;;;;;5039801;28;20445;-81
2021/10/01 09:32:16;;;;;;;18.30;1.37;;;15.50;1.00;;;;;;5041388;28;21669;-80
2021/10/01 09:34:45;;;;;;;15.67;1.07;;;15.50;1.00;;;;;;5038328;28;20977;-80
2021/10/01 09:37:21;;;;;;;16.57;1.40;;;15.60;1.00;;;;;;5041220;28;20517;-80
2021/10/01 09:39:56;;;;;;;21.37;1.80;;;15.80;1.00;;;;;;5039308;28;24616;-81
2021/10/01 09:42:27;;;;;;;20.97;1.40;;;15.50;1.00;;;;;;5038909;28;20468;-81
2021/10/01 09:45:01;;;;;;;22.13;1.97;;;15.50;1.00;;;;;;5045463;28;20448;-81
2021/10/01 09:47:31;;;;;;;19.57;2.13;;;15.50;1.00;;;;;;5040341;28;20456;-80
2021/10/01 09:50:01;;;;;;;20.27;1.50;;;15.60;1.00;;;;;;5041120;28;20540;-81
2021/10/01 09:52:40;;;;;;;17.30;1.70;;;15.50;1.00;;;;;;5039328;28;20461;-81
2021/10/01 09:55:07;;;;;;;19.57;1.60;;;15.70;1.00;;;;;;5037562;28;20448;-81
2021/10/01 09:57:34;;;;;;;18.70;1.47;;;15.90;1.00;;;;;;5041530;28;20467;-80
2021/10/01 10:00:00;;;;;;;20.40;1.50;;;16.00;1.00;;;;;;5042423;28;20464;-81
2021/10/01 10:02:26;;;;;;;20.13;1.53;;;16.10;1.00;;;;;;5040993;28;20473;-80
2021/10/01 10:04:52;;;;;;;18.70;1.47;;;16.20;1.00;;;;;;5042513;28;20194;-81
2021/10/01 10:07:20;;;;;;;16.83;1.10;;;16.30;1.00;;;;;;5036503;28;20207;-80
2021/10/01 10:10:07;;;;;;;16.10;1.20;;;16.30;1.00;;;;;;5038559;28;20961;-81
2021/10/01 10:12:33;;;;;;;18.13;1.47;;;16.30;1.00;;;;;;5039315;28;20439;-81
2021/10/01 10:14:59;;;;;;;16.00;1.30;;;16.40;1.00;;;;;;5036325;28;20453;-81
2021/10/01 10:17:27;;;;;;;17.40;1.30;;;16.40;1.00;;;;;;5039818;28;20222;-80
2021/10/01 10:19:58;;;;;;;18.93;1.53;;;16.40;1.00;;;;;;5038962;28;20456;-81
2021/10/01 10:22:26;;;;;;;16.10;1.50;;;16.40;1.00;;;;;;5040192;28;21001;-80
2021/10/01 10:24:54;;;;;;;16.87;1.30;;;16.30;1.00;;;;;;5037061;28;20452;-80
2021/10/01 10:27:21;;;;;;;16.03;1.40;;;16.50;1.00;;;;;;5034012;28;20473;-80
2021/10/01 10:29:48;;;;;;;17.80;1.30;;;16.50;1.00;;;;;;5040808;28;20444;-81
2021/10/01 10:32:15;;;;;;;17.07;1.20;;;16.60;1.00;;;;;;5037400;28;20499;-80
2021/10/01 10:34:51;;;;;;;19.40;1.57;;;16.80;1.00;;;;;;5036991;28;20518;-81
2021/10/01 10:37:17;;;;;;;16.90;1.30;;;16.80;1.00;;;;;;5040845;28;20467;-81
2021/10/01 10:39:53;;;;;;;15.73;1.13;;;17.00;1.00;;;;;;5039143;28;20449;-81
2021/10/01 10:42:30;;;;;;;15.53;1.67;;;17.10;1.00;;;;;;5038028;28;20455;-81
2021/10/01 10:45:02;;;;;;;13.30;1.00;;;17.10;1.00;;;;;;5041348;28;21464;-81
2021/10/01 10:47:47;;;;;;;14.17;0.90;;;17.10;1.00;;;;;;5037530;28;20484;-80
2021/10/01 10:50:19;;;;;;;14.27;1.03;;;17.30;1.00;;;;;;5036817;28;20502;-80
2021/10/01 10:53:03;;;;;;;17.27;1.40;;;17.40;1.00;;;;;;5038524;28;20547;-81
2021/10/01 10:55:30;;;;;;;11.50;1.30;;;17.60;1.00;;;;;;5040712;28;20798;-81
2021/10/01 10:57:55;;;;;;;14.10;1.30;;;17.50;1.00;;;;;;5038169;28;20994;-80
2021/10/01 11:00:35;;;;;;;12.90;1.30;;;17.50;1.00;;;;;;5038047;28;20452;-81
2021/10/01 11:03:22;;;;;;;15.70;1.67;;;17.40;1.00;;;;;;5040055;28;20175;-81
2021/10/01 11:06:17;;;;;;;17.37;1.43;;;17.50;1.00;;;;;;5043834;28;20822;-81
2021/10/01 11:08:50;;;;;;;12.40;1.50;;;17.50;1.00;;;;;;5042223;28;20448;-80
2021/10/01 11:11:34;;;;;;;11.80;1.30;;;17.50;1.00;;;;;;5040217;28;20451;-81
2021/10/01 11:14:15;;;;;;;11.57;1.47;;;17.60;1.00;;;;;;5038828;28;21208;-80
2021/10/01 11:17:07;;;;;;;12.73;1.20;;;17.50;1.00;;;;;;5040269;28;20576;-80
2021/10/01 11:19:40;;;;;;;12.40;1.40;;;17.60;1.00;;;;;;5044966;28;20992;-80
2021/10/01 11:22:28;;;;;;;11.60;1.20;;;17.20;1.00;;;;;;5043686;28;20470;-80
2021/10/01 11:24:59;;;;;;;9.63;1.10;;;17.10;1.00;;;;;;5044648;28;20523;-81
2021/10/01 11:27:25;;;;;;;10.20;1.03;;;17.10;1.00;;;;;;5042995;28;20564;-81
2021/10/01 11:29:50;;;;;;;11.37;1.30;;;17.00;1.00;;;;;;5044869;28;20475;-80
2021/10/01 11:32:22;;;;;;;12.00;1.70;;;17.00;1.00;;;;;;5046415;28;21242;-80
2021/10/01 11:34:48;;;;;;;11.20;1.20;;;17.10;1.00;;;;;;5043768;28;21181;-80
2021/10/01 11:37:24;;;;;;;13.37;1.40;;;17.40;1.00;;;;;;5038584;28;20587;-80
2021/10/01 11:39:52;;;;;;;9.93;1.00;;;17.50;1.00;;;;;;5044094;28;20198;-81
2021/10/01 11:42:29;;;;;;;7.93;1.30;;;17.60;1.00;;;;;;5040386;28;20829;-81
2021/10/01 11:44:56;;;;;;;8.73;1.70;;;17.40;1.00;;;;;;5045329;28;20456;-80
2021/10/01 11:47:22;;;;;;;8.10;1.53;;;17.40;1.00;;;;;;5040191;28;20495;-81
2021/10/01 11:49:58;;;;;;;11.87;1.00;;;17.50;1.00;;;;;;5041797;28;20452;-80
2021/10/01 11:52:26;;;;;;;10.97;1.20;;;17.60;1.00;;;;;;5036680;28;20525;-80
2021/10/01 11:54:58;;;;;;;12.30;1.17;;;17.50;1.00;;;;;;5043217;28;21090;-80
2021/10/01 11:57:34;;;;;;;10.00;1.10;;;17.50;1.00;;;;;;5041124;28;20448;-81
2021/10/01 12:00:02;;;;;;;11.87;1.23;;;17.50;1.00;;;;;;5044417;28;20496;-81
2021/10/01 12:02:45;;;;;;;8.23;1.20;;;17.50;1.00;;;;;;5042815;28;20432;-80
2021/10/01 12:05:30;;;;;;;7.63;1.00;;;17.40;1.00;;;;;;5040200;28;20525;-80
2021/10/01 12:08:06;;;;;;;10.43;1.23;;;17.50;1.00;;;;;;5044209;28;20842;-81
2021/10/01 12:10:33;;;;;;;8.53;1.00;;;17.50;1.00;;;;;;5041137;28;20437;-80
2021/10/01 12:13:08;;;;;;;8.17;1.40;;;17.50;1.00;;;;;;5043492;28;20506;-81
2021/10/01 12:15:49;;;;;;;5.77;1.10;;;17.50;1.00;;;;;;5043158;28;20533;-80
2021/10/01 12:18:36;;;;;;;8.13;1.30;;;17.40;1.00;;;;;;5043002;28;20440;-81
2021/10/01 12:21:17;;;;;;;8.00;1.23;;;17.50;1.00;;;;;;5041792;28;22605;-80
2021/10/01 12:23:44;;;;;;;11.40;1.53;;;17.50;1.00;;;;;;5042269;28;20825;-80
2021/10/01 12:26:35;;;;;;;6.60;1.10;;;17.60;1.00;;;;;;5041537;28;20512;-79
2021/10/01 12:29:12;;;;;;;7.17;1.30;;;17.70;1.00;;;;;;5040815;28;20451;-80
2021/10/01 12:31:41;;;;;;;5.80;1.00;;;17.60;1.00;;;;;;5043766;28;20567;-81
2021/10/01 12:34:22;;;;;;;5.57;1.07;;;17.60;1.00;;;;;;5041273;28;20816;-80
2021/10/01 12:36:52;;;;;;;7.80;0.97;;;17.30;1.00;;;;;;5044362;28;20476;-80
2021/10/01 12:39:18;;;;;;;6.43;1.20;;;17.30;1.00;;;;;;5036950;28;20533;-80
2021/10/01 12:41:44;;;;;;;6.87;1.50;;;17.50;1.00;;;;;;5041851;28;20460;-81
2021/10/01 12:44:14;;;;;;;6.70;0.97;;;17.50;1.00;;;;;;5042844;28;20461;-81
2021/10/01 12:46:46;;;;;;;5.43;0.83;;;17.40;1.00;;;;;;5042209;28;20485;-81
2021/10/01 12:49:21;;;;;;;4.97;1.07;;;17.30;1.00;;;;;;5040663;28;21790;-80
2021/10/01 12:52:13;;;;;;;7.77;1.10;;;17.40;1.00;;;;;;5033528;28;20456;-80
2021/10/01 12:54:45;;;;;;;6.00;1.20;;;17.50;1.00;;;;;;5039489;28;20471;-80
2021/10/01 12:57:15;;;;;;;6.50;1.20;;;17.60;1.00;;;;;;5045978;28;20479;-80
2021/10/01 12:59:43;;;;;;;6.90;1.77;;;17.70;1.00;;;;;;5040166;28;20957;-80
2021/10/01 13:02:12;;;;;;;6.83;1.20;;;17.60;1.00;;;;;;5039428;28;20445;-81
2021/10/01 13:04:52;;;;;;;5.50;1.00;;;17.50;1.00;;;;;;5037956;28;20571;-80
2021/10/01 13:07:27;;;;;;;7.30;1.30;;;17.50;1.00;;;;;;5042039;28;20473;-79
2021/10/01 13:09:54;;;;;;;4.90;1.10;;;17.40;1.00;;;;;;5040608;28;21470;-80
2021/10/01 13:12:35;;;;;;;6.03;0.87;;;17.40;1.00;;;;;;5040497;28;20477;-80
2021/10/01 13:15:14;;;;;;;6.13;1.00;;;17.40;1.00;;;;;;5037477;28;20456;-80
2021/10/01 13:17:41;;;;;;;9.03;1.23;;;17.50;1.00;;;;;;5040212;28;20444;-80
2021/10/01 13:20:07;;;;;;;5.87;1.10;;;17.40;1.00;;;;;;5038699;28;20452;-80
2021/10/01 13:22:53;;;;;;;5.80;0.80;;;17.50;1.00;;;;;;5038775;28;20821;-80
2021/10/01 13:25:28;;;;;;;9.33;1.00;;;17.50;1.00;;;;;;5027643;28;21032;-81
2021/10/01 13:27:56;;;;;;;8.60;1.10;;;17.50;1.00;;;;;;5029671;28;20479;-80
2021/10/01 13:30:22;;;;;;;6.03;1.57;;;17.50;1.00;;;;;;5032830;28;20461;-81
2021/10/01 13:32:49;;;;;;;7.30;1.33;;;17.50;1.00;;;;;;5036984;28;20440;-81
2021/10/01 13:35:15;;;;;;;7.57;1.50;;;17.40;1.00;;;;;;5034589;28;20436;-80
2021/10/01 13:37:43;;;;;;;6.67;1.40;;;17.40;1.00;;;;;;5031688;28;20522;-80
2021/10/01 13:40:10;;;;;;;6.83;1.20;;;17.40;1.00;;;;;;5035013;28;20486;-81
2021/10/01 13:42:36;;;;;;;7.17;1.30;;;17.30;1.00;;;;;;5037916;28;20935;-79
2021/10/01 13:45:02;;;;;;;5.60;1.43;;;17.30;1.00;;;;;;5031324;28;20463;-81
2021/10/01 13:47:31;;;;;;;7.37;1.20;;;17.30;1.00;;;;;;5029885;28;20206;-80
2021/10/01 13:49:57;;;;;;;8.53;1.10;;;17.40;1.00;;;;;;5033295;28;20441;-80
2021/10/01 13:52:24;;;;;;;5.10;1.03;;;17.50;1.00;;;;;;5037187;28;21254;-81
2021/10/01 13:54:49;;;;;;;5.63;1.10;;;17.60;1.00;;;;;;5036735;28;20490;-80
2021/10/01 13:57:15;;;;;;;8.33;1.00;;;17.50;1.00;;;;;;5037047;28;20455;-81
2021/10/01 13:59:42;;;;;;;9.70;1.30;;;17.50;1.00;;;;;;5037003;28;20179;-81
2021/10/01 14:02:09;;;;;;;8.50;1.30;;;17.50;1.00;;;;;;5036295;28;20185;-81
2021/10/01 14:04:34;;;;;;;7.40;1.00;;;17.50;1.00;;;;;;5027996;28;20505;-80
2021/10/01 14:07:00;;;;;;;8.40;1.37;;;17.40;1.00;;;;;;5032797;28;20473;-80
2021/10/01 14:09:26;;;;;;;4.47;0.90;;;17.40;1.00;;;;;;5034584;28;20885;-80
2021/10/01 14:11:51;;;;;;;6.10;1.13;;;17.30;1.00;;;;;;5040303;28;20186;-79
2021/10/01 14:14:17;;;;;;;5.90;1.10;;;17.30;1.00;;;;;;5039528;28;20225;-80
2021/10/01 14:16:42;;;;;;;7.30;1.67;;;17.30;1.00;;;;;;5052849;28;20281;-80
2021/10/01 14:19:08;;;;;;;4.83;0.97;;;17.20;1.00;;;;;;5051092;28;20301;-80
2021/10/01 14:21:33;;;;;;;6.43;1.30;;;17.20;1.00;;;;;;5044264;28;20269;-80
2021/10/01 14:23:59;;;;;;;7.03;1.10;;;17.20;1.00;;;;;;5042915;28;20202;-80
2021/10/01 14:26:28;;;;;;;9.07;1.20;;;17.20;1.00;;;;;;5044894;28;20232;-80
2021/10/01 14:28:54;;;;;;;11.47;1.40;;;17.20;1.00;;;;;;5039700;28;20186;-81
2021/10/01 14:31:20;;;;;;;7.07;1.60;;;17.20;1.00;;;;;;5041879;28;20540;-80
2021/10/01 14:33:46;;;;;;;10.07;1.10;;;17.20;1.00;;;;;;5037301;28;20190;-80
2021/10/01 14:36:12;;;;;;;7.13;1.30;;;17.20;1.00;;;;;;5036619;28;20236;-80